sensor_id;sensor_type;location;lat;lon;timestamp;pressure;altitude;pressure_sealevel;temperature;humidity
18533;BME280;9396;51.510;11.934;2023-05-21T00:00:14;100719.13;;;15.09;100.00
18533;BME280;9396;51.510;11.934;2023-05-21T00:02:41;100701.59;;;14.98;100.00
18533;BME280;9396;51.510;11.934;2023-05-21T00:05:08;100715.19;;;14.88;100.00
18533;BME280;9396;51.510;11.934;2023-05-21T00:07:36;100715.00;;;14.90;100.00
18533;BME280;9396;51.510;11.934;2023-05-21T00:10:03;100714.50;;;14.94;100.00
18533;BME280;9396;51.510;11.934;2023-05-21T00:12:31;100721.34;;;14.97;100.00
18533;BME280;9396;51.510;11.934;2023-05-21T00:14:58;100712.31;;;14.98;100.00
18533;BME280;9396;51.510;11.934;2023-05-21T00:17:25;100708.59;;;14.99;100.00
18533;BME280;9396;51.510;11.934;2023-05-21T00:19:52;100705.25;;;14.97;100.00
18533;BME280;9396;51.510;11.934;2023-05-21T00:22:21;100711.16;;;14.92;100.00
18533;BME280;9396;51.510;11.934;2023-05-21T00:24:48;100705.97;;;14.91;100.00
18533;BME280;9396;51.510;11.934;2023-05-21T00:27:15;100712.00;;;14.93;100.00
18533;BME280;9396;51.510;11.934;2023-05-21T00:29:43;100705.00;;;14.84;100.00
18533;BME280;9396;51.510;11.934;2023-05-21T00:32:09;100697.13;;;14.82;100.00
18533;BME280;9396;51.510;11.934;2023-05-21T00:34:36;100707.50;;;14.85;100.00
18533;BME280;9396;51.510;11.934;2023-05-21T00:37:03;100696.84;;;14.69;100.00
18533;BME280;9396;51.510;11.934;2023-05-21T00:39:30;100690.16;;;14.73;100.00
18533;BME280;9396;51.510;11.934;2023-05-21T00:41:56;100690.81;;;14.75;100.00
18533;BME280;9396;51.510;11.934;2023-05-21T00:44:24;100688.94;;;14.76;100.00
18533;BME280;9396;51.510;11.934;2023-05-21T00:46:52;100685.78;;;14.72;100.00
18533;BME280;9396;51.510;11.934;2023-05-21T00:49:20;100677.72;;;14.80;100.00
18533;BME280;9396;51.510;11.934;2023-05-21T00:51:48;100687.13;;;14.76;100.00
18533;BME280;9396;51.510;11.934;2023-05-21T00:54:16;100684.97;;;14.72;100.00
18533;BME280;9396;51.510;11.934;2023-05-21T00:56:42;100678.06;;;14.77;100.00
18533;BME280;9396;51.510;11.934;2023-05-21T00:59:09;100688.09;;;14.83;100.00
18533;BME280;9396;51.510;11.934;2023-05-21T01:01:36;100676.75;;;14.73;100.00
18533;BME280;9396;51.510;11.934;2023-05-21T01:04:04;100680.78;;;14.69;100.00
18533;BME280;9396;51.510;11.934;2023-05-21T01:06:31;100686.31;;;14.60;100.00
18533;BME280;9396;51.510;11.934;2023-05-21T01:08:59;100680.78;;;14.69;100.00
18533;BME280;9396;51.510;11.934;2023-05-21T01:11:33;100674.25;;;14.72;100.00
18533;BME280;9396;51.510;11.934;2023-05-21T01:14:03;100674.59;;;14.69;100.00
18533;BME280;9396;51.510;11.934;2023-05-21T01:16:35;100678.78;;;14.71;100.00
18533;BME280;9396;51.510;11.934;2023-05-21T01:19:05;100676.56;;;14.75;100.00
18533;BME280;9396;51.510;11.934;2023-05-21T01:21:35;100678.91;;;14.78;100.00
18533;BME280;9396;51.510;11.934;2023-05-21T01:24:04;100685.09;;;14.78;100.00
18533;BME280;9396;51.510;11.934;2023-05-21T01:26:32;100665.38;;;14.71;100.00
18533;BME280;9396;51.510;11.934;2023-05-21T01:29:03;100629.66;;;14.48;100.00
18533;BME280;9396;51.510;11.934;2023-05-21T01:31:36;100676.09;;;14.71;100.00
18533;BME280;9396;51.510;11.934;2023-05-21T01:34:04;100671.78;;;14.62;100.00
18533;BME280;9396;51.510;11.934;2023-05-21T01:36:37;100674.38;;;14.40;100.00
18533;BME280;9396;51.510;11.934;2023-05-21T01:39:12;100663.97;;;14.37;100.00
18533;BME280;9396;51.510;11.934;2023-05-21T01:41:44;100667.84;;;14.18;100.00
18533;BME280;9396;51.510;11.934;2023-05-21T01:44:11;100670.19;;;14.21;100.00
18533;BME280;9396;51.510;11.934;2023-05-21T01:46:38;100661.53;;;14.27;100.00
18533;BME280;9396;51.510;11.934;2023-05-21T01:49:06;100663.00;;;14.14;100.00
18533;BME280;9396;51.510;11.934;2023-05-21T01:51:34;100653.78;;;14.24;100.00
18533;BME280;9396;51.510;11.934;2023-05-21T01:54:01;100651.63;;;14.36;100.00
18533;BME280;9396;51.510;11.934;2023-05-21T01:56:29;100649.94;;;14.19;100.00
18533;BME280;9396;51.510;11.934;2023-05-21T01:58:58;100649.31;;;14.09;100.00
18533;BME280;9396;51.510;11.934;2023-05-21T02:01:25;100653.28;;;14.21;100.00
18533;BME280;9396;51.510;11.934;2023-05-21T02:03:54;100647.59;;;14.32;100.00
18533;BME280;9396;51.510;11.934;2023-05-21T02:06:21;100650.59;;;14.21;100.00
18533;BME280;9396;51.510;11.934;2023-05-21T02:08:48;100649.13;;;14.34;100.00
18533;BME280;9396;51.510;11.934;2023-05-21T02:11:14;100649.78;;;14.28;100.00
18533;BME280;9396;51.510;11.934;2023-05-21T02:13:42;100653.75;;;14.40;100.00
18533;BME280;9396;51.510;11.934;2023-05-21T02:16:10;100646.22;;;14.52;100.00
18533;BME280;9396;51.510;11.934;2023-05-21T02:18:38;100650.22;;;14.48;100.00
18533;BME280;9396;51.510;11.934;2023-05-21T02:21:06;100648.34;;;14.56;100.00
18533;BME280;9396;51.510;11.934;2023-05-21T02:23:33;100639.72;;;14.38;100.00
18533;BME280;9396;51.510;11.934;2023-05-21T02:26:00;100642.41;;;14.38;100.00
18533;BME280;9396;51.510;11.934;2023-05-21T02:28:27;100632.41;;;14.32;100.00
18533;BME280;9396;51.510;11.934;2023-05-21T02:30:55;100639.25;;;14.19;100.00
18533;BME280;9396;51.510;11.934;2023-05-21T02:33:22;100631.38;;;14.17;100.00
18533;BME280;9396;51.510;11.934;2023-05-21T02:35:49;100638.13;;;14.05;100.00
18533;BME280;9396;51.510;11.934;2023-05-21T02:38:15;100641.09;;;14.10;100.00
18533;BME280;9396;51.510;11.934;2023-05-21T02:40:43;100639.41;;;14.17;100.00
18533;BME280;9396;51.510;11.934;2023-05-21T02:43:10;100641.41;;;14.15;100.00
18533;BME280;9396;51.510;11.934;2023-05-21T02:45:37;100645.97;;;14.07;100.00
18533;BME280;9396;51.510;11.934;2023-05-21T02:48:05;100641.44;;;14.07;100.00
18533;BME280;9396;51.510;11.934;2023-05-21T02:50:31;100644.97;;;13.99;100.00
18533;BME280;9396;51.510;11.934;2023-05-21T02:52:58;100623.91;;;14.05;100.00
18533;BME280;9396;51.510;11.934;2023-05-21T02:55:25;100637.13;;;13.98;100.00
18533;BME280;9396;51.510;11.934;2023-05-21T02:57:51;100641.63;;;14.06;100.00
18533;BME280;9396;51.510;11.934;2023-05-21T03:00:18;100641.47;;;13.91;100.00
18533;BME280;9396;51.510;11.934;2023-05-21T03:02:45;100643.84;;;13.86;100.00
18533;BME280;9396;51.510;11.934;2023-05-21T03:05:13;100647.81;;;13.98;100.00
18533;BME280;9396;51.510;11.934;2023-05-21T03:07:39;100647.66;;;13.83;100.00
18533;BME280;9396;51.510;11.934;2023-05-21T03:10:08;100650.66;;;13.96;100.00
18533;BME280;9396;51.510;11.934;2023-05-21T03:12:35;100648.97;;;13.95;100.00
18533;BME280;9396;51.510;11.934;2023-05-21T03:15:02;100647.97;;;14.05;100.00
18533;BME280;9396;51.510;11.934;2023-05-21T03:17:29;100648.13;;;14.11;100.00
18533;BME280;9396;51.510;11.934;2023-05-21T03:19:56;100648.81;;;14.13;100.00
18533;BME280;9396;51.510;11.934;2023-05-21T03:22:24;100651.44;;;14.21;100.00
18533;BME280;9396;51.510;11.934;2023-05-21T03:24:50;100650.97;;;14.26;100.00
18533;BME280;9396;51.510;11.934;2023-05-21T03:27:17;100645.97;;;13.90;100.00
18533;BME280;9396;51.510;11.934;2023-05-21T03:29:44;100646.47;;;13.94;100.00
18533;BME280;9396;51.510;11.934;2023-05-21T03:32:11;100644.78;;;14.01;100.00
18533;BME280;9396;51.510;11.934;2023-05-21T03:34:38;100645.81;;;14.00;100.00
18533;BME280;9396;51.510;11.934;2023-05-21T03:37:05;100644.97;;;13.99;100.00
18533;BME280;9396;51.510;11.934;2023-05-21T03:39:33;100652.16;;;14.07;100.00
18533;BME280;9396;51.510;11.934;2023-05-21T03:41:59;100650.47;;;14.22;100.00
18533;BME280;9396;51.510;11.934;2023-05-21T03:44:26;100645.81;;;14.00;100.00
18533;BME280;9396;51.510;11.934;2023-05-21T03:46:56;100650.50;;;14.06;100.00
18533;BME280;9396;51.510;11.934;2023-05-21T03:49:23;100651.31;;;14.07;100.00
18533;BME280;9396;51.510;11.934;2023-05-21T03:51:51;100655.66;;;14.16;100.00
18533;BME280;9396;51.510;11.934;2023-05-21T03:54:18;100648.78;;;14.21;100.00
18533;BME280;9396;51.510;11.934;2023-05-21T03:56:46;100649.94;;;14.19;100.00
18533;BME280;9396;51.510;11.934;2023-05-21T03:59:13;100656.13;;;14.19;100.00
18533;BME280;9396;51.510;11.934;2023-05-21T04:01:39;100651.66;;;14.04;100.00
18533;BME280;9396;51.510;11.934;2023-05-21T04:04:06;100649.47;;;13.99;100.00
18533;BME280;9396;51.510;11.934;2023-05-21T04:06:33;100639.81;;;13.90;100.00
18533;BME280;9396;51.510;11.934;2023-05-21T04:09:00;100644.16;;;13.91;100.00
18533;BME280;9396;51.510;11.934;2023-05-21T04:11:27;100646.34;;;13.87;100.00
18533;BME280;9396;51.510;11.934;2023-05-21T04:13:55;100648.84;;;13.81;100.00
18533;BME280;9396;51.510;11.934;2023-05-21T04:16:21;100649.69;;;13.89;100.00
18533;BME280;9396;51.510;11.934;2023-05-21T04:18:49;100652.84;;;13.85;100.00
18533;BME280;9396;51.510;11.934;2023-05-21T04:21:15;100644.69;;;13.86;100.00
18533;BME280;9396;51.510;11.934;2023-05-21T04:23:42;100645.00;;;13.83;100.00
18533;BME280;9396;51.510;11.934;2023-05-21T04:26:08;100657.00;;;13.95;100.00
18533;BME280;9396;51.510;11.934;2023-05-21T04:28:36;100654.66;;;14.09;100.00
18533;BME280;9396;51.510;11.934;2023-05-21T04:31:07;100648.09;;;14.19;100.00
18533;BME280;9396;51.510;11.934;2023-05-21T04:33:37;100653.16;;;14.14;100.00
18533;BME280;9396;51.510;11.934;2023-05-21T04:36:06;100644.75;;;14.25;100.00
18533;BME280;9396;51.510;11.934;2023-05-21T04:38:34;100650.41;;;14.46;100.00
18533;BME280;9396;51.510;11.934;2023-05-21T04:41:01;100623.34;;;14.17;100.00
18533;BME280;9396;51.510;11.934;2023-05-21T04:43:28;100652.13;;;14.31;100.00
18533;BME280;9396;51.510;11.934;2023-05-21T04:45:56;100652.97;;;14.40;100.00
18533;BME280;9396;51.510;11.934;2023-05-21T04:48:24;100646.13;;;14.29;100.00
18533;BME280;9396;51.510;11.934;2023-05-21T04:50:51;100655.28;;;14.35;100.00
18533;BME280;9396;51.510;11.934;2023-05-21T04:53:18;100650.91;;;14.50;100.00
18533;BME280;9396;51.510;11.934;2023-05-21T04:55:45;100652.19;;;14.62;100.00
18533;BME280;9396;51.510;11.934;2023-05-21T04:58:12;100654.06;;;14.53;100.00
18533;BME280;9396;51.510;11.934;2023-05-21T05:00:41;100656.13;;;14.43;100.00
18533;BME280;9396;51.510;11.934;2023-05-21T05:03:10;100651.44;;;14.45;100.00
18533;BME280;9396;51.510;11.934;2023-05-21T05:05:39;100662.13;;;14.45;100.00
18533;BME280;9396;51.510;11.934;2023-05-21T05:08:06;100651.03;;;14.56;100.00
18533;BME280;9396;51.510;11.934;2023-05-21T05:10:32;100655.03;;;14.68;100.00
18533;BME280;9396;51.510;11.934;2023-05-21T05:12:59;100646.63;;;14.71;100.00
18533;BME280;9396;51.510;11.934;2023-05-21T05:15:26;100659.53;;;14.68;100.00
18533;BME280;9396;51.510;11.934;2023-05-21T05:17:52;100645.09;;;14.77;100.00
18533;BME280;9396;51.510;11.934;2023-05-21T05:20:20;100650.63;;;14.75;100.00
18533;BME280;9396;51.510;11.934;2023-05-21T05:22:48;100647.41;;;14.88;100.00
18533;BME280;9396;51.510;11.934;2023-05-21T05:25:15;100650.38;;;14.93;100.00
18533;BME280;9396;51.510;11.934;2023-05-21T05:27:42;100651.81;;;15.03;100.00
18533;BME280;9396;51.510;11.934;2023-05-21T05:30:09;100647.44;;;15.11;100.00
18533;BME280;9396;51.510;11.934;2023-05-21T05:32:35;100642.16;;;15.25;100.00
18533;BME280;9396;51.510;11.934;2023-05-21T05:35:02;100648.88;;;15.21;100.00
18533;BME280;9396;51.510;11.934;2023-05-21T05:37:29;100648.31;;;15.26;100.00
18533;BME280;9396;51.510;11.934;2023-05-21T05:39:58;100643.19;;;15.47;100.00
18533;BME280;9396;51.510;11.934;2023-05-21T05:42:25;100651.28;;;15.61;100.00
18533;BME280;9396;51.510;11.934;2023-05-21T05:44:51;100642.63;;;15.74;100.00
18533;BME280;9396;51.510;11.934;2023-05-21T05:47:18;100639.88;;;15.82;100.00
18533;BME280;9396;51.510;11.934;2023-05-21T05:49:46;100554.81;;;15.53;100.00
18533;BME280;9396;51.510;11.934;2023-05-21T05:52:13;100637.81;;;16.50;100.00
18533;BME280;9396;51.510;11.934;2023-05-21T05:54:39;100644.25;;;16.99;100.00
18533;BME280;9396;51.510;11.934;2023-05-21T05:57:07;100637.19;;;17.34;97.61
18533;BME280;9396;51.510;11.934;2023-05-21T05:59:34;100635.59;;;17.40;96.92
18533;BME280;9396;51.510;11.934;2023-05-21T06:02:00;100633.75;;;17.61;96.62
18533;BME280;9396;51.510;11.934;2023-05-21T06:04:27;100628.94;;;18.05;95.40
18533;BME280;9396;51.510;11.934;2023-05-21T06:06:54;100633.22;;;18.00;93.46
18533;BME280;9396;51.510;11.934;2023-05-21T06:09:21;100621.28;;;18.09;93.72
18533;BME280;9396;51.510;11.934;2023-05-21T06:11:48;100629.47;;;18.22;92.71
18533;BME280;9396;51.510;11.934;2023-05-21T06:14:16;100637.53;;;18.22;92.83
18533;BME280;9396;51.510;11.934;2023-05-21T06:16:43;100634.81;;;18.15;93.17
18533;BME280;9396;51.510;11.934;2023-05-21T06:19:09;100631.69;;;18.46;92.56
18533;BME280;9396;51.510;11.934;2023-05-21T06:21:36;100634.03;;;18.28;93.18
18533;BME280;9396;51.510;11.934;2023-05-21T06:24:03;100634.19;;;18.13;93.33
18533;BME280;9396;51.510;11.934;2023-05-21T06:26:30;100631.38;;;18.00;94.29
18533;BME280;9396;51.510;11.934;2023-05-21T06:28:56;100626.03;;;18.07;94.74
18533;BME280;9396;51.510;11.934;2023-05-21T06:31:24;100625.34;;;18.60;94.28
18533;BME280;9396;51.510;11.934;2023-05-21T06:33:51;100621.84;;;18.66;91.71
18533;BME280;9396;51.510;11.934;2023-05-21T06:36:17;100632.22;;;19.30;92.04
18533;BME280;9396;51.510;11.934;2023-05-21T06:38:44;100625.47;;;20.25;88.97
18533;BME280;9396;51.510;11.934;2023-05-21T06:41:11;100621.81;;;20.64;85.18
18533;BME280;9396;51.510;11.934;2023-05-21T06:43:37;100622.94;;;21.00;82.72
18533;BME280;9396;51.510;11.934;2023-05-21T06:46:04;100622.63;;;21.15;83.31
18533;BME280;9396;51.510;11.934;2023-05-21T06:48:32;100628.88;;;21.78;83.20
18533;BME280;9396;51.510;11.934;2023-05-21T06:50:58;100621.88;;;21.39;80.96
18533;BME280;9396;51.510;11.934;2023-05-21T06:53:25;100622.78;;;21.58;81.29
18533;BME280;9396;51.510;11.934;2023-05-21T06:55:52;100619.44;;;22.29;80.21
18533;BME280;9396;51.510;11.934;2023-05-21T06:58:18;100624.75;;;22.43;79.41
18533;BME280;9396;51.510;11.934;2023-05-21T07:00:46;100619.16;;;21.95;79.00
18533;BME280;9396;51.510;11.934;2023-05-21T07:03:12;100628.19;;;22.31;78.41
18533;BME280;9396;51.510;11.934;2023-05-21T07:05:40;100630.13;;;21.19;81.48
18533;BME280;9396;51.510;11.934;2023-05-21T07:08:07;100625.66;;;21.32;82.61
18533;BME280;9396;51.510;11.934;2023-05-21T07:10:33;100627.22;;;21.46;81.49
18533;BME280;9396;51.510;11.934;2023-05-21T07:13:00;100622.28;;;22.16;80.24
18533;BME280;9396;51.510;11.934;2023-05-21T07:15:27;100625.88;;;22.89;79.54
18533;BME280;9396;51.510;11.934;2023-05-21T07:17:53;100629.72;;;22.03;79.60
18533;BME280;9396;51.510;11.934;2023-05-21T07:20:20;100624.19;;;22.34;78.68
18533;BME280;9396;51.510;11.934;2023-05-21T07:22:48;100621.78;;;22.98;77.50
18533;BME280;9396;51.510;11.934;2023-05-21T07:25:15;100626.31;;;22.32;78.14
18533;BME280;9396;51.510;11.934;2023-05-21T07:27:42;100624.56;;;22.62;77.87
18533;BME280;9396;51.510;11.934;2023-05-21T07:30:09;100621.56;;;22.46;79.80
18533;BME280;9396;51.510;11.934;2023-05-21T07:32:36;100611.13;;;22.67;78.17
18533;BME280;9396;51.510;11.934;2023-05-21T07:35:03;100609.13;;;23.52;77.34
18533;BME280;9396;51.510;11.934;2023-05-21T07:37:30;100611.47;;;23.37;76.39
18533;BME280;9396;51.510;11.934;2023-05-21T07:39:58;100603.09;;;24.02;75.29
18533;BME280;9396;51.510;11.934;2023-05-21T07:42:25;100604.91;;;24.71;75.91
18533;BME280;9396;51.510;11.934;2023-05-21T07:44:51;100604.94;;;24.48;74.71
18533;BME280;9396;51.510;11.934;2023-05-21T07:47:19;100601.66;;;23.88;74.54
18533;BME280;9396;51.510;11.934;2023-05-21T07:49:47;100599.19;;;24.33;75.03
18533;BME280;9396;51.510;11.934;2023-05-21T07:52:14;100596.19;;;24.46;74.72
18533;BME280;9396;51.510;11.934;2023-05-21T07:54:41;100593.16;;;24.08;75.42
18533;BME280;9396;51.510;11.934;2023-05-21T07:57:09;100584.84;;;24.37;74.83
18533;BME280;9396;51.510;11.934;2023-05-21T07:59:35;100586.75;;;24.14;75.88
18533;BME280;9396;51.510;11.934;2023-05-21T08:02:02;100584.88;;;24.14;74.01
18533;BME280;9396;51.510;11.934;2023-05-21T08:04:29;100586.41;;;23.99;77.69
18533;BME280;9396;51.510;11.934;2023-05-21T08:06:55;100594.31;;;23.89;75.45
18533;BME280;9396;51.510;11.934;2023-05-21T08:09:22;100593.72;;;23.98;76.97
18533;BME280;9396;51.510;11.934;2023-05-21T08:11:48;100586.19;;;24.35;77.35
18533;BME280;9396;51.510;11.934;2023-05-21T08:14:17;100583.81;;;24.27;75.77
18533;BME280;9396;51.510;11.934;2023-05-21T08:16:43;100587.94;;;24.18;76.35
18533;BME280;9396;51.510;11.934;2023-05-21T08:19:10;100593.50;;;24.00;76.61
18533;BME280;9396;51.510;11.934;2023-05-21T08:21:36;100593.00;;;24.37;76.28
18533;BME280;9396;51.510;11.934;2023-05-21T08:24:03;100590.44;;;24.31;75.55
18533;BME280;9396;51.510;11.934;2023-05-21T08:26:30;100588.75;;;24.30;77.29
18533;BME280;9396;51.510;11.934;2023-05-21T08:28:56;100587.72;;;24.19;78.35
18533;BME280;9396;51.510;11.934;2023-05-21T08:31:25;100584.28;;;24.24;77.25
18533;BME280;9396;51.510;11.934;2023-05-21T08:33:53;100581.19;;;24.32;75.33
18533;BME280;9396;51.510;11.934;2023-05-21T08:36:20;100576.34;;;24.46;75.86
18533;BME280;9396;51.510;11.934;2023-05-21T08:38:48;100579.66;;;24.36;76.00
18533;BME280;9396;51.510;11.934;2023-05-21T08:41:15;100578.50;;;24.09;76.03
18533;BME280;9396;51.510;11.934;2023-05-21T08:43:44;100579.06;;;24.34;75.54
18533;BME280;9396;51.510;11.934;2023-05-21T08:46:12;100577.97;;;24.58;75.98
18533;BME280;9396;51.510;11.934;2023-05-21T08:48:41;100573.44;;;24.75;75.13
18533;BME280;9396;51.510;11.934;2023-05-21T08:51:08;100571.66;;;24.81;75.50
18533;BME280;9396;51.510;11.934;2023-05-21T08:53:35;100573.09;;;24.60;74.51
18533;BME280;9396;51.510;11.934;2023-05-21T08:56:01;100568.28;;;24.51;74.08
18533;BME280;9396;51.510;11.934;2023-05-21T08:58:31;100538.50;;;24.32;74.43
18533;BME280;9396;51.510;11.934;2023-05-21T09:00:58;100564.38;;;24.47;74.66
18533;BME280;9396;51.510;11.934;2023-05-21T09:03:26;100568.38;;;24.56;74.49
18533;BME280;9396;51.510;11.934;2023-05-21T09:05:57;100565.19;;;24.98;75.17
18533;BME280;9396;51.510;11.934;2023-05-21T09:08:29;100546.28;;;24.92;73.59
18533;BME280;9396;51.510;11.934;2023-05-21T09:10:57;100558.69;;;24.60;73.24
18533;BME280;9396;51.510;11.934;2023-05-21T09:13:25;100561.53;;;24.93;74.13
18533;BME280;9396;51.510;11.934;2023-05-21T09:15:52;100547.88;;;25.04;74.35
18533;BME280;9396;51.510;11.934;2023-05-21T09:18:18;100546.66;;;25.28;73.91
18533;BME280;9396;51.510;11.934;2023-05-21T09:20:45;100551.91;;;25.47;74.08
18533;BME280;9396;51.510;11.934;2023-05-21T09:23:16;100522.44;;;25.44;73.61
18533;BME280;9396;51.510;11.934;2023-05-21T09:25:44;100552.25;;;25.67;73.09
18533;BME280;9396;51.510;11.934;2023-05-21T09:28:11;100557.44;;;25.68;72.32
18533;BME280;9396;51.510;11.934;2023-05-21T09:30:43;100543.56;;;25.70;73.40
18533;BME280;9396;51.510;11.934;2023-05-21T09:33:10;100545.13;;;25.66;72.33
18533;BME280;9396;51.510;11.934;2023-05-21T09:35:43;100544.72;;;25.74;72.89
18533;BME280;9396;51.510;11.934;2023-05-21T09:38:10;100540.25;;;25.68;72.07
18533;BME280;9396;51.510;11.934;2023-05-21T09:40:42;100546.13;;;25.43;73.32
18533;BME280;9396;51.510;11.934;2023-05-21T09:43:12;100511.00;;;25.13;71.52
18533;BME280;9396;51.510;11.934;2023-05-21T09:45:49;100536.59;;;25.29;71.95
18533;BME280;9396;51.510;11.934;2023-05-21T09:48:16;100537.72;;;25.45;73.71
18533;BME280;9396;51.510;11.934;2023-05-21T09:50:43;100537.63;;;25.39;73.64
18533;BME280;9396;51.510;11.934;2023-05-21T09:53:11;100533.38;;;25.32;73.50
18533;BME280;9396;51.510;11.934;2023-05-21T09:55:39;100534.78;;;25.34;73.99
18533;BME280;9396;51.510;11.934;2023-05-21T09:58:09;100531.72;;;25.14;73.95
18533;BME280;9396;51.510;11.934;2023-05-21T10:00:36;100539.38;;;25.01;74.72
18533;BME280;9396;51.510;11.934;2023-05-21T10:03:08;100536.19;;;24.92;74.47
18533;BME280;9396;51.510;11.934;2023-05-21T10:05:35;100525.72;;;24.84;74.72
18533;BME280;9396;51.510;11.934;2023-05-21T10:08:03;100526.38;;;24.91;74.89
18533;BME280;9396;51.510;11.934;2023-05-21T10:10:30;100528.69;;;24.99;74.97
18533;BME280;9396;51.510;11.934;2023-05-21T10:13:00;100521.53;;;25.10;73.84
18533;BME280;9396;51.510;11.934;2023-05-21T10:15:34;100520.22;;;25.12;73.10
18533;BME280;9396;51.510;11.934;2023-05-21T10:18:03;100525.53;;;25.35;73.22
18533;BME280;9396;51.510;11.934;2023-05-21T10:20:31;100496.81;;;25.11;72.61
18533;BME280;9396;51.510;11.934;2023-05-21T10:22:58;100534.69;;;25.29;73.01
18533;BME280;9396;51.510;11.934;2023-05-21T10:25:26;100525.72;;;25.29;72.84
18533;BME280;9396;51.510;11.934;2023-05-21T10:27:54;100525.84;;;25.22;72.27
18533;BME280;9396;51.510;11.934;2023-05-21T10:30:23;100519.94;;;25.25;71.94
18533;BME280;9396;51.510;11.934;2023-05-21T10:32:50;100520.31;;;25.17;72.24
18533;BME280;9396;51.510;11.934;2023-05-21T10:35:17;100516.69;;;25.12;72.34
18533;BME280;9396;51.510;11.934;2023-05-21T10:37:44;100525.72;;;25.29;74.83
18533;BME280;9396;51.510;11.934;2023-05-21T10:40:12;100519.25;;;25.18;72.15
18533;BME280;9396;51.510;11.934;2023-05-21T10:45:57;100511.25;;;25.28;72.77
18533;BME280;9396;51.510;11.934;2023-05-21T10:48:39;100513.81;;;25.35;72.46
18533;BME280;9396;51.510;11.934;2023-05-21T10:51:16;100507.38;;;25.24;71.48
18533;BME280;9396;51.510;11.934;2023-05-21T10:54:07;100475.00;;;24.95;72.40
18533;BME280;9396;51.510;11.934;2023-05-21T10:56:43;100506.38;;;25.14;73.12
18533;BME280;9396;51.510;11.934;2023-05-21T10:59:14;100516.84;;;25.05;71.74
18533;BME280;9396;51.510;11.934;2023-05-21T11:01:49;100507.50;;;25.01;71.94
18533;BME280;9396;51.510;11.934;2023-05-21T11:04:20;100496.94;;;25.05;72.87
18533;BME280;9396;51.510;11.934;2023-05-21T11:06:47;100507.44;;;25.13;72.52
18533;BME280;9396;51.510;11.934;2023-05-21T11:09:14;100495.00;;;25.17;72.09
18533;BME280;9396;51.510;11.934;2023-05-21T11:11:42;100501.66;;;25.09;71.05
18533;BME280;9396;51.510;11.934;2023-05-21T11:14:30;100499.38;;;25.18;71.53
18533;BME280;9396;51.510;11.934;2023-05-21T11:17:01;100494.84;;;25.23;71.20
18533;BME280;9396;51.510;11.934;2023-05-21T11:19:35;100474.84;;;25.18;70.66
18533;BME280;9396;51.510;11.934;2023-05-21T11:22:09;100494.06;;;25.28;70.72
18533;BME280;9396;51.510;11.934;2023-05-21T11:24:45;100487.25;;;25.25;66.90
18533;BME280;9396;51.510;11.934;2023-05-21T11:27:12;100482.59;;;25.26;67.22
18533;BME280;9396;51.510;11.934;2023-05-21T11:29:43;100488.38;;;25.29;67.92
18533;BME280;9396;51.510;11.934;2023-05-21T11:32:12;100482.59;;;25.26;67.96
18533;BME280;9396;51.510;11.934;2023-05-21T11:34:42;100481.03;;;25.30;68.12
18533;BME280;9396;51.510;11.934;2023-05-21T11:37:30;100478.81;;;25.27;67.92
18533;BME280;9396;51.510;11.934;2023-05-21T11:40:19;100489.47;;;25.28;66.30
18533;BME280;9396;51.510;11.934;2023-05-21T11:42:49;100491.59;;;25.26;67.71
18533;BME280;9396;51.510;11.934;2023-05-21T11:45:17;100490.28;;;25.29;66.22
18533;BME280;9396;51.510;11.934;2023-05-21T11:47:46;100474.28;;;25.32;67.54
18533;BME280;9396;51.510;11.934;2023-05-21T11:50:14;100440.22;;;25.13;67.23
18533;BME280;9396;51.510;11.934;2023-05-21T11:52:41;100469.34;;;25.46;66.12
18533;BME280;9396;51.510;11.934;2023-05-21T11:55:09;100479.00;;;25.54;66.62
18533;BME280;9396;51.510;11.934;2023-05-21T11:57:36;100483.22;;;25.61;68.37
18533;BME280;9396;51.510;11.934;2023-05-21T12:00:12;100466.59;;;25.63;65.40
18533;BME280;9396;51.510;11.934;2023-05-21T12:02:43;100483.94;;;25.73;64.14
18533;BME280;9396;51.510;11.934;2023-05-21T12:05:11;100469.63;;;25.83;60.21
18533;BME280;9396;51.510;11.934;2023-05-21T12:07:38;100471.91;;;25.91;59.81
18533;BME280;9396;51.510;11.934;2023-05-21T12:10:06;100480.56;;;26.04;61.73
18533;BME280;9396;51.510;11.934;2023-05-21T12:12:33;100460.22;;;26.12;59.12
18533;BME280;9396;51.510;11.934;2023-05-21T12:15:00;100461.88;;;26.13;58.44
18533;BME280;9396;51.510;11.934;2023-05-21T12:17:27;100459.72;;;26.15;57.39
18533;BME280;9396;51.510;11.934;2023-05-21T12:19:56;100463.00;;;26.17;57.50
18533;BME280;9396;51.510;11.934;2023-05-21T12:22:24;100463.78;;;26.12;56.90
18533;BME280;9396;51.510;11.934;2023-05-21T12:24:52;100458.94;;;26.19;57.13
18533;BME280;9396;51.510;11.934;2023-05-21T12:27:21;100458.63;;;26.16;58.21
18533;BME280;9396;51.510;11.934;2023-05-21T12:29:49;100452.09;;;26.17;58.17
18533;BME280;9396;51.510;11.934;2023-05-21T12:32:16;100455.38;;;26.19;58.61
18533;BME280;9396;51.510;11.934;2023-05-21T12:34:44;100457.47;;;26.12;58.20
18533;BME280;9396;51.510;11.934;2023-05-21T12:37:11;100458.00;;;26.09;59.01
18533;BME280;9396;51.510;11.934;2023-05-21T12:39:42;100420.94;;;25.91;60.46
18533;BME280;9396;51.510;11.934;2023-05-21T12:42:09;100453.91;;;26.11;60.34
18533;BME280;9396;51.510;11.934;2023-05-21T12:44:37;100454.06;;;26.21;60.62
18533;BME280;9396;51.510;11.934;2023-05-21T12:47:04;100463.19;;;26.32;60.62
18533;BME280;9396;51.510;11.934;2023-05-21T12:49:33;100459.69;;;26.36;59.90
18533;BME280;9396;51.510;11.934;2023-05-21T12:52:02;100467.56;;;26.33;59.79